Main page
METAR-TAF:

METAR-TAF

Airports :

Kempegowda International Airport

Bangalore, India

latitude: 13-11-56N, longitude: 077-42-20E, elevation: 915 m

Current weather observation

The report was made 32 minutes ago, at 17:00 UTC
Wind 5 kt from the East/Southeast
Temperature 27°C
Humidity 39%
Pressure 1017 hPa
Visibility: 6000 m

METAR: VOBL 221700Z 12005KT 6000 NSC 27/12 Q1017 NOSIG

Time: 23:02 (17:32 UTC)

Forecast

The report was made 3 hours and 32 minutes ago, at 14:00 UTC
Forecast valid from 22 at 15 UTC to 22 at 24 UTC
Wind 10 kt from the Southeast
Visibility: 6000 m
Scattered clouds at a height of 1500 ft
Becoming
from 22 at 18 UTC to 22 at 19 UTC
Wind 2 kt from variable directions

TAF: VOBL 221400Z 2215/2224 14010KT 6000 SCT015 BECMG 2218/2219 VRB02KT

Weather observations and forecasts of more than 4000 airports (METAR and TAF reports).

The available stations are represented by yellow and red dots on the map.

Hover mouse over dot to see the name of the station.

Then click to see weather observations and forecasts.

To change the map : click on the green buttons with a black cross to zoom in, on the green button with a dash to zoom out, or on the green arrows for adjacent maps.


METAR-TAF: